Nashville, Tennessee
Traffic Map
Current Weather Conditions
Nashville, Tennessee
Scattered Clouds
Scattered Clouds
57°
Feels Like: 57°
Wind Chill: 57° Ceiling: Unl
Heat Index: 57° Visibility: 10mi
Dew Point: 47° Wind: 5mph
Humidity: 69% Direction: 280° (W)
Pressure: 29.86in Gusts: 0mph
Raw Report DataKBNA 262353Z 28004KT 10SM FEW030 SCT043 SCT075 14/08 A2986 RMK AO2 SLP109 T01390083 10150 20111 53005
Traffic Incident Summary
Active as of:
Severity:
Category:
InformationThere was an issue retrieving the traffic information for this location. Please try a different location or try again shortly.
Advertisements
Track Severe Weather on mobile